»·PEaware :: N1507M KEAT-KBOI

N1507M :: KEAT-KBOI

FLIGHT INFORMATION

Flight Status: Arrived
Operator: Privately registered:
United States
More flights under this callsign
Pilot: Matthew M. (8235)
Aircraft: DEHAVILLAND DASH 8 400
(DH8D)
More flights by this aircraft type
Origin: KEAT Pangborn Meml
United States
Destination: KBOI Boise Air Terminal/Gowen
United States
More flights between these airports :: More routes between these airports
Route: +OFARO2 QUINT PDT DEVLE KYAAN3
File this flight plan on PilotEdge
Remarks:
Altitude:
(Current/Filed)
23,000ft
Speed:
(Current/Filed)
317kts
Departed: 23-Apr-20 07:38 AM
Arrived: 23-Apr-20 08:38 AM
Distance/Time
Traveled:
284nm/1:00
Distance/Time
To Go:
Arrived

Flight Plot

Page will automatically refresh every two minutes.


Map Options




Map Legend


Flown Route
Filed Route
Departure Airport
Arrival Airport
Navaid (VOR, NDB)
Fix

Horizontal Profiles

Position Reports

Time Latitude Longitude Heading Altitude Ground
Speed
23-Apr-20 07:30 47.402033 -120.206914 45 1256ft 0kts
23-Apr-20 07:31 47.402033 -120.206914 45 1256ft 0kts
23-Apr-20 07:32 47.402033 -120.206914 45 1256ft 0kts
23-Apr-20 07:33 47.402033 -120.206914 45 1256ft 0kts
23-Apr-20 07:34 47.401916 -120.207060 12 1256ft 11kts
23-Apr-20 07:35 47.404700 -120.213697 280 1256ft 22kts
23-Apr-20 07:36 47.403394 -120.213835 134 1256ft 21kts
23-Apr-20 07:37 47.382910 -120.179958 106 2630ft 149kts
23-Apr-20 07:38 47.370703 -120.172889 330 2364ft 116kts
23-Apr-20 07:39 47.395801 -120.202570 313 1261ft 108kts
23-Apr-20 07:40 47.403711 -120.213617 342 1256ft 5kts
23-Apr-20 07:41 47.404123 -120.213780 345 1256ft 0kts
23-Apr-20 07:42 47.404352 -120.213879 340 1256ft 0kts
23-Apr-20 07:43 47.403203 -120.213523 135 1256ft 35kts
23-Apr-20 07:44 47.380624 -120.176889 125 2931ft 142kts
23-Apr-20 07:45 47.352011 -120.117397 125 5067ft 216kts
23-Apr-20 07:46 47.306271 -120.052066 139 7481ft 250kts
23-Apr-20 07:47 47.255893 -119.979029 131 10115ft 265kts
23-Apr-20 07:48 47.201388 -119.900121 151 12160ft 283kts
23-Apr-20 07:49 47.128095 -119.851513 159 14099ft 290kts
23-Apr-20 07:50 47.052217 -119.802159 160 15821ft 299kts
23-Apr-20 07:51 46.974246 -119.750999 159 17220ft 304kts
23-Apr-20 07:52 46.895267 -119.699535 162 18373ft 311kts
23-Apr-20 07:53 46.814260 -119.646979 161 19348ft 319kts
23-Apr-20 07:54 46.732536 -119.593936 160 20263ft 323kts
23-Apr-20 07:55 46.650959 -119.541777 162 21116ft 330kts
23-Apr-20 07:56 46.568089 -119.487720 163 21843ft 335kts
23-Apr-20 07:57 46.483123 -119.433505 164 22551ft 340kts
23-Apr-20 07:58 46.396449 -119.378086 164 23115ft 351kts
23-Apr-20 07:59 46.305954 -119.320742 164 23182ft 369kts
23-Apr-20 08:00 46.212438 -119.261404 164 23180ft 381kts
23-Apr-20 08:01 46.116421 -119.200407 163 23175ft 388kts
23-Apr-20 08:02 46.019457 -119.139449 163 23176ft 391kts
23-Apr-20 08:03 45.922168 -119.077714 164 23179ft 394kts
23-Apr-20 08:04 45.826763 -119.018682 164 23181ft 396kts
23-Apr-20 08:05 45.724069 -118.954599 164 23183ft 397kts
23-Apr-20 08:06 45.634483 -118.865706 143 23183ft 406kts
23-Apr-20 08:07 45.550962 -118.764885 147 23184ft 405kts
23-Apr-20 08:08 45.465184 -118.666266 146 23185ft 408kts
23-Apr-20 08:09 45.380037 -118.567350 146 23187ft 409kts
23-Apr-20 08:10 45.293534 -118.467192 146 23190ft 410kts
23-Apr-20 08:11 45.206160 -118.366545 146 23194ft 410kts
23-Apr-20 08:12 45.120819 -118.268537 147 23199ft 411kts
23-Apr-20 08:13 45.035035 -118.170663 146 23198ft 411kts
23-Apr-20 08:14 44.945544 -118.069785 146 23199ft 413kts
23-Apr-20 08:15 44.856473 -117.968923 145 23196ft 414kts
23-Apr-20 08:16 44.767770 -117.868841 145 23193ft 414kts
23-Apr-20 08:17 44.680833 -117.770709 145 23193ft 415kts
23-Apr-20 08:18 44.593844 -117.672943 145 23194ft 415kts
23-Apr-20 08:19 44.506342 -117.575467 146 21897ft 422kts
23-Apr-20 08:20 44.424130 -117.483441 146 20300ft 380kts
23-Apr-20 08:21 44.351349 -117.402370 147 18882ft 339kts
23-Apr-20 08:22 44.286153 -117.330032 147 17612ft 302kts
23-Apr-20 08:23 44.222974 -117.261498 146 16434ft 332kts
23-Apr-20 08:24 44.150874 -117.170637 138 14703ft 384kts
23-Apr-20 08:25 44.075001 -117.069386 139 12803ft 376kts
23-Apr-20 08:26 44.004545 -116.977736 139 11063ft 335kts
23-Apr-20 08:27 43.947787 -116.890070 124 9778ft 294kts
23-Apr-20 08:28 43.905574 -116.800593 124 9122ft 284kts
23-Apr-20 08:29 43.860656 -116.708264 125 8454ft 298kts
23-Apr-20 08:30 43.809844 -116.622083 144 7826ft 275kts
23-Apr-20 08:31 43.753662 -116.564003 145 6278ft 239kts
23-Apr-20 08:32 43.703190 -116.510628 144 5047ft 225kts
23-Apr-20 08:33 43.651893 -116.456042 138 5006ft 243kts
23-Apr-20 08:35 43.617255 -116.380802 117 4469ft 213kts
23-Apr-20 08:36 43.593549 -116.306649 106 4024ft 188kts
23-Apr-20 08:37 43.573961 -116.247903 114 3093ft 156kts
23-Apr-20 08:38 43.563356 -116.216855 108 2878ft 10kts
23-Apr-20 08:39 43.564359 -116.216443 322 2878ft 6kts
23-Apr-20 08:40 43.566266 -116.221574 299 2878ft 18kts
23-Apr-20 08:41 43.567184 -116.222235 330 2878ft 0kts
23-Apr-20 08:42 43.567184 -116.222235 330 2878ft 0kts
23-Apr-20 08:43 43.567184 -116.222235 330 2878ft 0kts
23-Apr-20 08:44 43.567184 -116.222235 330 2878ft 0kts
23-Apr-20 08:45 43.567184 -116.222235 330 2878ft 0kts
23-Apr-20 08:46 43.567184 -116.222235 330 2878ft 0kts
23-Apr-20 08:47 43.567184 -116.222235 330 2878ft 0kts
23-Apr-20 08:48 43.567184 -116.222235 330 2878ft 0kts
23-Apr-20 08:49 43.567184 -116.222235 330 2878ft 0kts
23-Apr-20 08:50 43.567184 -116.222235 330 2878ft 0kts
23-Apr-20 08:51 43.567184 -116.222235 330 2878ft 0kts
23-Apr-20 08:52 43.567184 -116.222235 330 2878ft 0kts
23-Apr-20 08:52 43.567184 -116.222235 330 2878ft 0kts

Navigation Log

Ident Type
Flight plan parsing failed, navigation log unavailable